MTS Valour — MPVV8 — position and weather

sailwx.info

Track history (hours):
 
Tides and Currents Weather Stations Pressure Air Temp Water Temp Dewpoint Dewpoint Depression Visibility Wind Speed Wind Dir Waves Ship Positions

MTS Valour

Last reported at 2018-Feb-24 12:45 UTC. Time now 2018-Feb-25 12:05 UTC.
Position N 53°32' W 003°50'.

Length 24 m; draft 2.3 m.

Type: Tug. MMSI: 235040596.

Date/timePositionNaut miles runAvg speedWind from/ knotsBaromVisibWave heightAir tempDewpointWater temp
2018-Feb-24 12:45N 53°32' W 003°50'1 4.5
2018-Feb-24 12:27N 53°32' W 003°48'2 4.8
2018-Feb-24 11:59N 53°33' W 003°44'3 5.1
2018-Feb-24 11:29N 53°33' W 003°40'3 5.3
2018-Feb-24 11:00N 53°33' W 003°36'3 5.4
2018-Feb-24 10:30N 53°33' W 003°31'3 5.6
2018-Feb-24 10:00N 53°33' W 003°26'3 6.0
2018-Feb-24 09:30N 53°32' W 003°21'3 6.5
2018-Feb-24 09:00N 53°32' W 003°16'3 6.1
2018-Feb-24 08:30N 53°32' W 003°11'3 5.9
2018-Feb-24 08:00N 53°31' W 003°06'4 7.4
2018-Feb-24 07:30N 53°28' W 003°03'4 8.5
2018-Feb-24 07:00N 53°24' W 003°00'4 7.2
2018-Feb-24 06:30N 53°20' W 002°58'1 2.3
2018-Feb-24 06:00N 53°19' W 002°57'0 0.0
2018-Feb-24 05:30N 53°19' W 002°57'2 4.3
2018-Feb-24 05:00N 53°18' W 002°54'1 1.0
2018-Feb-24 04:28N 53°17' W 002°54'0 0.0
2018-Feb-24 03:58N 53°17' W 002°54'0 0.0
2018-Feb-24 03:28N 53°17' W 002°54'0 0.0
2018-Feb-24 02:55N 53°17' W 002°54'0 0.0
2018-Feb-24 02:28N 53°17' W 002°54'0 0.0
2018-Feb-24 01:58N 53°17' W 002°54'0 0.0
2018-Feb-24 01:25N 53°17' W 002°54'0 0.0
2018-Feb-24 00:58N 53°17' W 002°54'0 0.0
2018-Feb-24 00:28N 53°17' W 002°54'0 0.0
2018-Feb-23 23:58N 53°17' W 002°54'0 0.0
2018-Feb-23 23:28N 53°17' W 002°54'0 0.0
2018-Feb-23 22:58N 53°17' W 002°54'0 0.0
2018-Feb-23 22:28N 53°17' W 002°54'0 0.0
2018-Feb-23 21:52N 53°17' W 002°54'0 0.0
2018-Feb-23 21:28N 53°17' W 002°54'0 0.0
2018-Feb-23 20:58N 53°17' W 002°54'0 0.0
2018-Feb-23 20:28N 53°17' W 002°54'0 0.0
2018-Feb-23 19:58N 53°17' W 002°54'0 0.0
2018-Feb-23 19:28N 53°17' W 002°54'0 0.0
2018-Feb-23 18:58N 53°17' W 002°54'0 0.0
2018-Feb-23 18:28N 53°17' W 002°54'0 0.0
2018-Feb-23 17:55N 53°17' W 002°54'0 0.0
2018-Feb-23 17:22N 53°17' W 002°54'0 0.0
2018-Feb-23 16:55N 53°17' W 002°54'0 0.0
2018-Feb-23 16:28N 53°17' W 002°54'0 0.0
2018-Feb-23 15:58N 53°17' W 002°54'0 0.0
2018-Feb-23 15:28N 53°17' W 002°54'0 0.0
2018-Feb-23 14:58N 53°17' W 002°54'0 0.0
2018-Feb-23 14:25N 53°17' W 002°54'0 0.0
2018-Feb-23 13:58N 53°17' W 002°54'0 0.0
2018-Feb-23 13:28N 53°17' W 002°54'0 0.0
2018-Feb-23 12:58N 53°17' W 002°54'0 0.0
2018-Feb-23 12:28N 53°17' W 002°54'0 0.0
2018-Feb-23 11:58N 53°17' W 002°54'0 0.0
2018-Feb-23 11:28N 53°17' W 002°54'0 0.0
2018-Feb-23 10:58N 53°17' W 002°54'0 0.0
2018-Feb-23 10:28N 53°17' W 002°54'0 0.0
2018-Feb-23 09:58N 53°17' W 002°54'0 0.0
2018-Feb-23 09:28N 53°17' W 002°54'0 0.0
2018-Feb-23 08:55N 53°17' W 002°54'0 0.0
2018-Feb-23 08:28N 53°17' W 002°54'0 0.0
2018-Feb-23 07:58N 53°17' W 002°54'0 0.0
2018-Feb-23 07:25N 53°17' W 002°54'0 0.0
2018-Feb-23 06:58N 53°17' W 002°54'0 0.0
2018-Feb-23 06:28N 53°17' W 002°54'0 0.0
2018-Feb-23 05:58N 53°17' W 002°54'0 0.0
2018-Feb-23 05:28N 53°17' W 002°54'0 0.0
2018-Feb-23 04:58N 53°17' W 002°54'0 0.0
2018-Feb-23 04:28N 53°17' W 002°54'0 0.0
2018-Feb-23 03:58N 53°17' W 002°54'0 0.0
2018-Feb-23 03:25N 53°17' W 002°54'0 0.0
2018-Feb-23 02:58N 53°17' W 002°54'0 0.0
2018-Feb-23 02:28N 53°17' W 002°54'0 0.0
2018-Feb-23 01:55N 53°17' W 002°54'0 0.0
2018-Feb-23 01:28N 53°17' W 002°54'0 0.0
2018-Feb-23 00:58N 53°17' W 002°54'0 0.0
2018-Feb-23 00:28N 53°17' W 002°54'0 0.0
2018-Feb-22 23:55N 53°17' W 002°54'0 0.0
2018-Feb-22 23:28N 53°17' W 002°54'0 0.0
2018-Feb-22 22:58N 53°17' W 002°54'0 0.0
2018-Feb-22 22:25N 53°17' W 002°54'0 0.0
2018-Feb-22 21:58N 53°17' W 002°54'0 0.0
2018-Feb-22 21:28N 53°17' W 002°54'0 0.0
2018-Feb-22 20:58N 53°17' W 002°54'0 0.0
2018-Feb-22 20:28N 53°17' W 002°54'0 0.0
2018-Feb-22 19:58N 53°17' W 002°54'0 0.0
2018-Feb-22 19:28N 53°17' W 002°54'0 0.0
2018-Feb-22 18:58N 53°17' W 002°54'0 0.0
2018-Feb-22 18:28N 53°17' W 002°54'0 0.0
2018-Feb-22 17:58N 53°17' W 002°54'0 0.0
2018-Feb-22 17:25N 53°17' W 002°54'0 0.0
2018-Feb-22 16:55N 53°17' W 002°54'0 0.0
2018-Feb-22 16:28N 53°17' W 002°54'0 0.0
2018-Feb-22 15:58N 53°17' W 002°54'0 0.0
2018-Feb-22 15:28N 53°17' W 002°54'0 0.0
2018-Feb-22 14:58N 53°17' W 002°54'0 0.0
2018-Feb-22 14:28N 53°17' W 002°54'0 0.0
2018-Feb-22 13:58N 53°17' W 002°54'0 0.0
2018-Feb-22 13:28N 53°17' W 002°54'0 0.0
2018-Feb-22 12:58N 53°17' W 002°54'0 0.0
2018-Feb-22 12:28N 53°17' W 002°54'0 0.0
2018-Feb-22 11:55N 53°17' W 002°54'0 0.0
2018-Feb-22 11:28N 53°17' W 002°54'0 0.0
2018-Feb-22 10:58N 53°17' W 002°54'0 0.0
2018-Feb-22 10:28N 53°17' W 002°54'0 0.0
2018-Feb-22 09:58N 53°17' W 002°54'0 0.0
2018-Feb-22 09:28N 53°17' W 002°54'0 0.0
2018-Feb-22 08:58N 53°17' W 002°54'0 0.0
2018-Feb-22 08:28N 53°17' W 002°54'0 0.0
2018-Feb-22 07:58N 53°17' W 002°54'0 0.0
2018-Feb-22 07:28N 53°17' W 002°54'0 0.0
2018-Feb-22 06:55N 53°17' W 002°54'0 0.0
2018-Feb-22 06:28N 53°17' W 002°54'0 0.0
2018-Feb-22 05:58N 53°17' W 002°54'0 0.0
2018-Feb-22 05:28N 53°17' W 002°54'0 0.0
2018-Feb-22 04:58N 53°17' W 002°54'0 0.0
2018-Feb-22 04:25N 53°17' W 002°54'0 0.0
2018-Feb-22 03:58N 53°17' W 002°54'0 0.0
2018-Feb-22 03:28N 53°17' W 002°54'0 0.0
2018-Feb-22 02:58N 53°17' W 002°54'0 0.0
2018-Feb-22 02:28N 53°17' W 002°54'0 0.0
2018-Feb-22 01:58N 53°17' W 002°54'0 0.0
2018-Feb-22 01:28N 53°17' W 002°54'0 0.0
2018-Feb-22 00:52N 53°17' W 002°54'0 0.0
2018-Feb-22 00:28N 53°17' W 002°54'0 0.0
2018-Feb-21 23:58N 53°17' W 002°54'0 0.0
2018-Feb-21 23:28N 53°17' W 002°54'0 0.0
2018-Feb-21 22:58N 53°17' W 002°54'0 0.0
2018-Feb-21 22:25N 53°17' W 002°54'0 0.0
2018-Feb-21 21:58N 53°17' W 002°54'0 0.0
2018-Feb-21 21:28N 53°17' W 002°54'0 0.0
2018-Feb-21 20:58N 53°17' W 002°54'0 0.0
2018-Feb-21 20:28N 53°17' W 002°54'0 0.0
2018-Feb-21 19:58N 53°17' W 002°54'0 0.0
2018-Feb-21 19:28N 53°17' W 002°54'0 0.0
2018-Feb-21 18:58N 53°17' W 002°54'0 0.0
2018-Feb-21 18:28N 53°17' W 002°54'0 0.0
2018-Feb-21 17:58N 53°17' W 002°54'0 0.0
2018-Feb-21 17:28N 53°17' W 002°54'0 0.0
2018-Feb-21 16:58N 53°17' W 002°54'0 0.0
2018-Feb-21 16:25N 53°17' W 002°54'0 0.0
2018-Feb-21 15:58N 53°17' W 002°54'0 0.0
2018-Feb-21 15:28N 53°17' W 002°54'0 0.0
2018-Feb-21 14:58N 53°17' W 002°54'0 0.0
2018-Feb-21 14:28N 53°17' W 002°54'0 0.0
2018-Feb-21 13:58N 53°17' W 002°54'0 0.0
2018-Feb-21 13:28N 53°17' W 002°54'0 0.0
2018-Feb-21 12:58N 53°17' W 002°54'0 0.0
2018-Feb-21 12:28N 53°17' W 002°54'0 0.0
2018-Feb-21 11:52N 53°17' W 002°54'0 0.6
2018-Feb-21 11:29N 53°18' W 002°54'0 0.0
2018-Feb-21 10:59N 53°18' W 002°54'0 0.1
2018-Feb-21 10:29N 53°18' W 002°54'0 0.0
2018-Feb-21 09:56N 53°18' W 002°54'0 0.1
2018-Feb-21 09:26N 53°18' W 002°54'0 0.0
2018-Feb-21 08:59N 53°18' W 002°54'0 0.0
2018-Feb-21 08:29N 53°18' W 002°54'0 0.0
2018-Feb-21 07:59N 53°18' W 002°54'0 0.0
2018-Feb-21 07:26N 53°18' W 002°54'0 0.0
2018-Feb-21 06:59N 53°18' W 002°54'0 0.0
2018-Feb-21 06:23N 53°18' W 002°54'0 0.0
2018-Feb-21 05:56N 53°18' W 002°54'0 0.0
2018-Feb-21 05:29N 53°18' W 002°54'0 0.0
2018-Feb-21 04:56N 53°18' W 002°54'0 0.0
2018-Feb-21 04:29N 53°18' W 002°54'0 0.0
2018-Feb-21 03:59N 53°18' W 002°54'0 0.0
2018-Feb-21 03:26N 53°18' W 002°54'0 0.0
2018-Feb-21 02:59N 53°18' W 002°54'0 0.0
2018-Feb-21 02:29N 53°18' W 002°54'0 0.0
2018-Feb-21 01:59N 53°18' W 002°54'0 0.0
2018-Feb-21 01:29N 53°18' W 002°54'0 0.0
2018-Feb-21 00:59N 53°18' W 002°54'0 0.0
2018-Feb-21 00:29N 53°18' W 002°54'0 0.0
2018-Feb-20 23:59N 53°18' W 002°54'0 0.0
2018-Feb-20 23:29N 53°18' W 002°54'0 0.0
2018-Feb-20 22:59N 53°18' W 002°54'0 0.0
2018-Feb-20 22:29N 53°18' W 002°54'0 0.0
2018-Feb-20 21:59N 53°18' W 002°54'0 0.0
2018-Feb-20 21:29N 53°18' W 002°54'0 0.0
2018-Feb-20 20:59N 53°18' W 002°54'0 0.0
2018-Feb-20 20:29N 53°18' W 002°54'0 0.0
2018-Feb-20 19:56N 53°18' W 002°54'0 0.0
2018-Feb-20 19:23N 53°18' W 002°54'0 0.0
2018-Feb-20 18:59N 53°18' W 002°54'0 0.0
2018-Feb-20 18:29N 53°18' W 002°54'0 0.7
2018-Feb-20 18:00N 53°18' W 002°54'2 4.1
2018-Feb-20 17:30N 53°19' W 002°57'1 2.6
2018-Feb-20 17:00N 53°21' W 002°58'2 3.7
2018-Feb-20 16:30N 53°22' W 002°59'2 3.0
2018-Feb-20 16:00N 53°24' W 003°00'1 1.9
2018-Feb-20 15:30N 53°24' W 003°01'1 2.1
2018-Feb-20 15:00N 53°25' W 003°01'2 3.9
2018-Feb-20 14:30N 53°27' W 003°03'2 4.6
2018-Feb-20 14:00N 53°29' W 003°05'2 4.8
2018-Feb-20 13:30N 53°31' W 003°07'2 4.5
2018-Feb-20 13:00N 53°32' W 003°11'2 4.7
2018-Feb-20 12:30N 53°31' W 003°15'2 4.6
2018-Feb-20 12:00N 53°31' W 003°18'2 4.2
2018-Feb-20 11:30N 53°31' W 003°22'2 4.9
2018-Feb-20 11:00N 53°30' W 003°26'3 5.6
2018-Feb-20 10:29N 53°30' W 003°31'3 6.7
2018-Feb-20 09:58N 53°30' W 003°37'3 6.3
2018-Feb-20 09:30N 53°30' W 003°42'3 5.8
2018-Feb-20 09:00N 53°30' W 003°46'3 5.5
2018-Feb-20 08:26N 53°29' W 003°52'  
2018-Feb-17 06:01N 50°00' W 004°58'0 3.3
2018-Feb-17 06:00N 50°00' W 004°58'2 3.3
2018-Feb-17 05:30N 50°02' W 004°59'3 3.6
2018-Feb-17 04:44N 50°04' W 005°00'1 4.1
2018-Feb-17 04:30N 50°05' W 005°01'  
Track history (hours):
 
Tides and Currents Weather Stations Pressure Air Temp Water Temp Dewpoint Dewpoint Depression Visibility Wind Speed Wind Dir Waves Ship Positions

MTS Valour

Last reported at 2018-Feb-24 12:45 UTC. Time now 2018-Feb-25 12:05 UTC.
Position N 53°32' W 003°50'.

Length 24 m; draft 2.3 m.

Type: Tug. MMSI: 235040596.

Date/timePositionNaut miles runAvg speedWind from/ knotsBaromVisibWave heightAir tempDewpointWater temp
2018-Feb-24 12:45N 53°32' W 003°50'1 4.5
2018-Feb-24 12:27N 53°32' W 003°48'2 4.8
2018-Feb-24 11:59N 53°33' W 003°44'3 5.1
2018-Feb-24 11:29N 53°33' W 003°40'3 5.3
2018-Feb-24 11:00N 53°33' W 003°36'3 5.4
2018-Feb-24 10:30N 53°33' W 003°31'3 5.6
2018-Feb-24 10:00N 53°33' W 003°26'3 6.0
2018-Feb-24 09:30N 53°32' W 003°21'3 6.5
2018-Feb-24 09:00N 53°32' W 003°16'3 6.1
2018-Feb-24 08:30N 53°32' W 003°11'3 5.9
2018-Feb-24 08:00N 53°31' W 003°06'4 7.4
2018-Feb-24 07:30N 53°28' W 003°03'4 8.5
2018-Feb-24 07:00N 53°24' W 003°00'4 7.2
2018-Feb-24 06:30N 53°20' W 002°58'1 2.3
2018-Feb-24 06:00N 53°19' W 002°57'0 0.0
2018-Feb-24 05:30N 53°19' W 002°57'2 4.3
2018-Feb-24 05:00N 53°18' W 002°54'1 1.0
2018-Feb-24 04:28N 53°17' W 002°54'0 0.0
2018-Feb-24 03:58N 53°17' W 002°54'0 0.0
2018-Feb-24 03:28N 53°17' W 002°54'0 0.0
2018-Feb-24 02:55N 53°17' W 002°54'0 0.0
2018-Feb-24 02:28N 53°17' W 002°54'0 0.0
2018-Feb-24 01:58N 53°17' W 002°54'0 0.0
2018-Feb-24 01:25N 53°17' W 002°54'0 0.0
2018-Feb-24 00:58N 53°17' W 002°54'0 0.0
2018-Feb-24 00:28N 53°17' W 002°54'0 0.0
2018-Feb-23 23:58N 53°17' W 002°54'0 0.0
2018-Feb-23 23:28N 53°17' W 002°54'0 0.0
2018-Feb-23 22:58N 53°17' W 002°54'0 0.0
2018-Feb-23 22:28N 53°17' W 002°54'0 0.0
2018-Feb-23 21:52N 53°17' W 002°54'0 0.0
2018-Feb-23 21:28N 53°17' W 002°54'0 0.0
2018-Feb-23 20:58N 53°17' W 002°54'0 0.0
2018-Feb-23 20:28N 53°17' W 002°54'0 0.0
2018-Feb-23 19:58N 53°17' W 002°54'0 0.0
2018-Feb-23 19:28N 53°17' W 002°54'0 0.0
2018-Feb-23 18:58N 53°17' W 002°54'0 0.0
2018-Feb-23 18:28N 53°17' W 002°54'0 0.0
2018-Feb-23 17:55N 53°17' W 002°54'0 0.0
2018-Feb-23 17:22N 53°17' W 002°54'0 0.0
2018-Feb-23 16:55N 53°17' W 002°54'0 0.0
2018-Feb-23 16:28N 53°17' W 002°54'0 0.0
2018-Feb-23 15:58N 53°17' W 002°54'0 0.0
2018-Feb-23 15:28N 53°17' W 002°54'0 0.0
2018-Feb-23 14:58N 53°17' W 002°54'0 0.0
2018-Feb-23 14:25N 53°17' W 002°54'0 0.0
2018-Feb-23 13:58N 53°17' W 002°54'0 0.0
2018-Feb-23 13:28N 53°17' W 002°54'0 0.0
2018-Feb-23 12:58N 53°17' W 002°54'0 0.0
2018-Feb-23 12:28N 53°17' W 002°54'0 0.0
2018-Feb-23 11:58N 53°17' W 002°54'0 0.0
2018-Feb-23 11:28N 53°17' W 002°54'0 0.0
2018-Feb-23 10:58N 53°17' W 002°54'0 0.0
2018-Feb-23 10:28N 53°17' W 002°54'0 0.0
2018-Feb-23 09:58N 53°17' W 002°54'0 0.0
2018-Feb-23 09:28N 53°17' W 002°54'0 0.0
2018-Feb-23 08:55N 53°17' W 002°54'0 0.0
2018-Feb-23 08:28N 53°17' W 002°54'0 0.0
2018-Feb-23 07:58N 53°17' W 002°54'0 0.0
2018-Feb-23 07:25N 53°17' W 002°54'0 0.0
2018-Feb-23 06:58N 53°17' W 002°54'0 0.0
2018-Feb-23 06:28N 53°17' W 002°54'0 0.0
2018-Feb-23 05:58N 53°17' W 002°54'0 0.0
2018-Feb-23 05:28N 53°17' W 002°54'0 0.0
2018-Feb-23 04:58N 53°17' W 002°54'0 0.0
2018-Feb-23 04:28N 53°17' W 002°54'0 0.0
2018-Feb-23 03:58N 53°17' W 002°54'0 0.0
2018-Feb-23 03:25N 53°17' W 002°54'0 0.0
2018-Feb-23 02:58N 53°17' W 002°54'0 0.0
2018-Feb-23 02:28N 53°17' W 002°54'0 0.0
2018-Feb-23 01:55N 53°17' W 002°54'0 0.0
2018-Feb-23 01:28N 53°17' W 002°54'0 0.0
2018-Feb-23 00:58N 53°17' W 002°54'0 0.0
2018-Feb-23 00:28N 53°17' W 002°54'0 0.0
2018-Feb-22 23:55N 53°17' W 002°54'0 0.0
2018-Feb-22 23:28N 53°17' W 002°54'0 0.0
2018-Feb-22 22:58N 53°17' W 002°54'0 0.0
2018-Feb-22 22:25N 53°17' W 002°54'0 0.0
2018-Feb-22 21:58N 53°17' W 002°54'0 0.0
2018-Feb-22 21:28N 53°17' W 002°54'0 0.0
2018-Feb-22 20:58N 53°17' W 002°54'0 0.0
2018-Feb-22 20:28N 53°17' W 002°54'0 0.0
2018-Feb-22 19:58N 53°17' W 002°54'0 0.0
2018-Feb-22 19:28N 53°17' W 002°54'0 0.0
2018-Feb-22 18:58N 53°17' W 002°54'0 0.0
2018-Feb-22 18:28N 53°17' W 002°54'0 0.0
2018-Feb-22 17:58N 53°17' W 002°54'0 0.0
2018-Feb-22 17:25N 53°17' W 002°54'0 0.0
2018-Feb-22 16:55N 53°17' W 002°54'0 0.0
2018-Feb-22 16:28N 53°17' W 002°54'0 0.0
2018-Feb-22 15:58N 53°17' W 002°54'0 0.0
2018-Feb-22 15:28N 53°17' W 002°54'0 0.0
2018-Feb-22 14:58N 53°17' W 002°54'0 0.0
2018-Feb-22 14:28N 53°17' W 002°54'0 0.0
2018-Feb-22 13:58N 53°17' W 002°54'0 0.0
2018-Feb-22 13:28N 53°17' W 002°54'0 0.0
2018-Feb-22 12:58N 53°17' W 002°54'0 0.0
2018-Feb-22 12:28N 53°17' W 002°54'0 0.0
2018-Feb-22 11:55N 53°17' W 002°54'0 0.0
2018-Feb-22 11:28N 53°17' W 002°54'0 0.0
2018-Feb-22 10:58N 53°17' W 002°54'0 0.0
2018-Feb-22 10:28N 53°17' W 002°54'0 0.0
2018-Feb-22 09:58N 53°17' W 002°54'0 0.0
2018-Feb-22 09:28N 53°17' W 002°54'0 0.0
2018-Feb-22 08:58N 53°17' W 002°54'0 0.0
2018-Feb-22 08:28N 53°17' W 002°54'0 0.0
2018-Feb-22 07:58N 53°17' W 002°54'0 0.0
2018-Feb-22 07:28N 53°17' W 002°54'0 0.0
2018-Feb-22 06:55N 53°17' W 002°54'0 0.0
2018-Feb-22 06:28N 53°17' W 002°54'0 0.0
2018-Feb-22 05:58N 53°17' W 002°54'0 0.0
2018-Feb-22 05:28N 53°17' W 002°54'0 0.0
2018-Feb-22 04:58N 53°17' W 002°54'0 0.0
2018-Feb-22 04:25N 53°17' W 002°54'0 0.0
2018-Feb-22 03:58N 53°17' W 002°54'0 0.0
2018-Feb-22 03:28N 53°17' W 002°54'0 0.0
2018-Feb-22 02:58N 53°17' W 002°54'0 0.0
2018-Feb-22 02:28N 53°17' W 002°54'0 0.0
2018-Feb-22 01:58N 53°17' W 002°54'0 0.0
2018-Feb-22 01:28N 53°17' W 002°54'0 0.0
2018-Feb-22 00:52N 53°17' W 002°54'0 0.0
2018-Feb-22 00:28N 53°17' W 002°54'0 0.0
2018-Feb-21 23:58N 53°17' W 002°54'0 0.0
2018-Feb-21 23:28N 53°17' W 002°54'0 0.0
2018-Feb-21 22:58N 53°17' W 002°54'0 0.0
2018-Feb-21 22:25N 53°17' W 002°54'0 0.0
2018-Feb-21 21:58N 53°17' W 002°54'0 0.0
2018-Feb-21 21:28N 53°17' W 002°54'0 0.0
2018-Feb-21 20:58N 53°17' W 002°54'0 0.0
2018-Feb-21 20:28N 53°17' W 002°54'0 0.0
2018-Feb-21 19:58N 53°17' W 002°54'0 0.0
2018-Feb-21 19:28N 53°17' W 002°54'0 0.0
2018-Feb-21 18:58N 53°17' W 002°54'0 0.0
2018-Feb-21 18:28N 53°17' W 002°54'0 0.0
2018-Feb-21 17:58N 53°17' W 002°54'0 0.0
2018-Feb-21 17:28N 53°17' W 002°54'0 0.0
2018-Feb-21 16:58N 53°17' W 002°54'0 0.0
2018-Feb-21 16:25N 53°17' W 002°54'0 0.0
2018-Feb-21 15:58N 53°17' W 002°54'0 0.0
2018-Feb-21 15:28N 53°17' W 002°54'0 0.0
2018-Feb-21 14:58N 53°17' W 002°54'0 0.0
2018-Feb-21 14:28N 53°17' W 002°54'0 0.0
2018-Feb-21 13:58N 53°17' W 002°54'0 0.0
2018-Feb-21 13:28N 53°17' W 002°54'0 0.0
2018-Feb-21 12:58N 53°17' W 002°54'0 0.0
2018-Feb-21 12:28N 53°17' W 002°54'0 0.0
2018-Feb-21 11:52N 53°17' W 002°54'0 0.6
2018-Feb-21 11:29N 53°18' W 002°54'0 0.0
2018-Feb-21 10:59N 53°18' W 002°54'0 0.1
2018-Feb-21 10:29N 53°18' W 002°54'0 0.0
2018-Feb-21 09:56N 53°18' W 002°54'0 0.1
2018-Feb-21 09:26N 53°18' W 002°54'0 0.0
2018-Feb-21 08:59N 53°18' W 002°54'0 0.0
2018-Feb-21 08:29N 53°18' W 002°54'0 0.0
2018-Feb-21 07:59N 53°18' W 002°54'0 0.0
2018-Feb-21 07:26N 53°18' W 002°54'0 0.0
2018-Feb-21 06:59N 53°18' W 002°54'0 0.0
2018-Feb-21 06:23N 53°18' W 002°54'0 0.0
2018-Feb-21 05:56N 53°18' W 002°54'0 0.0
2018-Feb-21 05:29N 53°18' W 002°54'0 0.0
2018-Feb-21 04:56N 53°18' W 002°54'0 0.0
2018-Feb-21 04:29N 53°18' W 002°54'0 0.0
2018-Feb-21 03:59N 53°18' W 002°54'0 0.0
2018-Feb-21 03:26N 53°18' W 002°54'0 0.0
2018-Feb-21 02:59N 53°18' W 002°54'0 0.0
2018-Feb-21 02:29N 53°18' W 002°54'0 0.0
2018-Feb-21 01:59N 53°18' W 002°54'0 0.0
2018-Feb-21 01:29N 53°18' W 002°54'0 0.0
2018-Feb-21 00:59N 53°18' W 002°54'0 0.0
2018-Feb-21 00:29N 53°18' W 002°54'0 0.0
2018-Feb-20 23:59N 53°18' W 002°54'0 0.0
2018-Feb-20 23:29N 53°18' W 002°54'0 0.0
2018-Feb-20 22:59N 53°18' W 002°54'0 0.0
2018-Feb-20 22:29N 53°18' W 002°54'0 0.0
2018-Feb-20 21:59N 53°18' W 002°54'0 0.0
2018-Feb-20 21:29N 53°18' W 002°54'0 0.0
2018-Feb-20 20:59N 53°18' W 002°54'0 0.0
2018-Feb-20 20:29N 53°18' W 002°54'0 0.0
2018-Feb-20 19:56N 53°18' W 002°54'0 0.0
2018-Feb-20 19:23N 53°18' W 002°54'0 0.0
2018-Feb-20 18:59N 53°18' W 002°54'0 0.0
2018-Feb-20 18:29N 53°18' W 002°54'0 0.7
2018-Feb-20 18:00N 53°18' W 002°54'2 4.1
2018-Feb-20 17:30N 53°19' W 002°57'1 2.6
2018-Feb-20 17:00N 53°21' W 002°58'2 3.7
2018-Feb-20 16:30N 53°22' W 002°59'2 3.0
2018-Feb-20 16:00N 53°24' W 003°00'1 1.9
2018-Feb-20 15:30N 53°24' W 003°01'1 2.1
2018-Feb-20 15:00N 53°25' W 003°01'2 3.9
2018-Feb-20 14:30N 53°27' W 003°03'2 4.6
2018-Feb-20 14:00N 53°29' W 003°05'2 4.8
2018-Feb-20 13:30N 53°31' W 003°07'2 4.5
2018-Feb-20 13:00N 53°32' W 003°11'2 4.7
2018-Feb-20 12:30N 53°31' W 003°15'2 4.6
2018-Feb-20 12:00N 53°31' W 003°18'2 4.2
2018-Feb-20 11:30N 53°31' W 003°22'2 4.9
2018-Feb-20 11:00N 53°30' W 003°26'3 5.6
2018-Feb-20 10:29N 53°30' W 003°31'3 6.7
2018-Feb-20 09:58N 53°30' W 003°37'3 6.3
2018-Feb-20 09:30N 53°30' W 003°42'3 5.8
2018-Feb-20 09:00N 53°30' W 003°46'3 5.5
2018-Feb-20 08:26N 53°29' W 003°52'  
2018-Feb-17 06:01N 50°00' W 004°58'0 3.3
2018-Feb-17 06:00N 50°00' W 004°58'2 3.3
2018-Feb-17 05:30N 50°02' W 004°59'3 3.6
2018-Feb-17 04:44N 50°04' W 005°00'1 4.1
2018-Feb-17 04:30N 50°05' W 005°01'  

Dump ship's entire track history